sensor_id;sensor_type;location;lat;lon;timestamp;pressure;altitude;pressure_sealevel;temperature;humidity
10806;BME280;5455;53.224;6.000;2023-06-10T00:01:33;101754.91;;;15.85;100.00
10806;BME280;5455;53.224;6.000;2023-06-10T00:04:03;101754.53;;;15.87;100.00
10806;BME280;5455;53.224;6.000;2023-06-10T00:06:31;101755.72;;;15.86;100.00
10806;BME280;5455;53.224;6.000;2023-06-10T00:09:04;101752.94;;;15.86;100.00
10806;BME280;5455;53.224;6.000;2023-06-10T00:11:32;101755.34;;;15.87;100.00
10806;BME280;5455;53.224;6.000;2023-06-10T00:13:59;101760.09;;;15.87;100.00
10806;BME280;5455;53.224;6.000;2023-06-10T00:16:27;101760.50;;;15.85;100.00
10806;BME280;5455;53.224;6.000;2023-06-10T00:18:54;101764.84;;;15.86;100.00
10806;BME280;5455;53.224;6.000;2023-06-10T00:21:28;101765.31;;;15.88;100.00
10806;BME280;5455;53.224;6.000;2023-06-10T00:23:56;101766.84;;;15.86;100.00
10806;BME280;5455;53.224;6.000;2023-06-10T00:26:23;101763.63;;;15.84;100.00
10806;BME280;5455;53.224;6.000;2023-06-10T00:28:50;101768.75;;;15.82;100.00
10806;BME280;5455;53.224;6.000;2023-06-10T00:31:20;101773.03;;;15.76;100.00
10806;BME280;5455;53.224;6.000;2023-06-10T00:33:47;101767.78;;;15.71;100.00
10806;BME280;5455;53.224;6.000;2023-06-10T00:36:14;101772.91;;;15.69;100.00
10806;BME280;5455;53.224;6.000;2023-06-10T00:38:41;101764.81;;;15.60;100.00
10806;BME280;5455;53.224;6.000;2023-06-10T00:41:08;101772.72;;;15.58;100.00
10806;BME280;5455;53.224;6.000;2023-06-10T00:43:35;101768.25;;;15.54;100.00
10806;BME280;5455;53.224;6.000;2023-06-10T00:46:02;101765.81;;;15.49;100.00
10806;BME280;5455;53.224;6.000;2023-06-10T00:48:30;101766.63;;;15.49;100.00
10806;BME280;5455;53.224;6.000;2023-06-10T00:50:57;101764.19;;;15.48;100.00
10806;BME280;5455;53.224;6.000;2023-06-10T00:53:27;101770.03;;;15.42;100.00
10806;BME280;5455;53.224;6.000;2023-06-10T00:55:55;101780.72;;;15.40;100.00
10806;BME280;5455;53.224;6.000;2023-06-10T00:58:23;101779.03;;;15.36;100.00
10806;BME280;5455;53.224;6.000;2023-06-10T01:00:51;101770.19;;;15.30;100.00
10806;BME280;5455;53.224;6.000;2023-06-10T01:03:18;101776.91;;;15.29;100.00
10806;BME280;5455;53.224;6.000;2023-06-10T01:05:57;101774.47;;;15.24;100.00
10806;BME280;5455;53.224;6.000;2023-06-10T01:08:37;101772.41;;;15.21;100.00
10806;BME280;5455;53.224;6.000;2023-06-10T01:11:14;101772.41;;;15.21;100.00
10806;BME280;5455;53.224;6.000;2023-06-10T01:13:45;101779.94;;;15.21;100.00
10806;BME280;5455;53.224;6.000;2023-06-10T01:16:12;101783.44;;;15.18;100.00
10806;BME280;5455;53.224;6.000;2023-06-10T01:18:40;101783.84;;;15.16;100.00
10806;BME280;5455;53.224;6.000;2023-06-10T01:21:07;101790.84;;;15.10;100.00
10806;BME280;5455;53.224;6.000;2023-06-10T01:23:37;101786.03;;;15.07;100.00
10806;BME280;5455;53.224;6.000;2023-06-10T01:26:09;101788.31;;;15.02;100.00
10806;BME280;5455;53.224;6.000;2023-06-10T01:28:49;101788.66;;;15.00;100.00
10806;BME280;5455;53.224;6.000;2023-06-10T01:34:01;101782.59;;;14.95;100.00
10806;BME280;5455;53.224;6.000;2023-06-10T01:36:31;101789.22;;;14.90;100.00
10806;BME280;5455;53.224;6.000;2023-06-10T01:38:59;101789.69;;;14.92;100.00
10806;BME280;5455;53.224;6.000;2023-06-10T01:41:28;101786.53;;;14.94;100.00
10806;BME280;5455;53.224;6.000;2023-06-10T01:43:55;101790.41;;;14.89;100.00
10806;BME280;5455;53.224;6.000;2023-06-10T01:46:22;101782.00;;;14.85;100.00
10806;BME280;5455;53.224;6.000;2023-06-10T01:48:49;101782.41;;;14.84;100.00
10806;BME280;5455;53.224;6.000;2023-06-10T01:51:16;101784.34;;;14.83;100.00
10806;BME280;5455;53.224;6.000;2023-06-10T01:53:43;101790.25;;;14.82;100.00
10806;BME280;5455;53.224;6.000;2023-06-10T01:56:10;101788.59;;;14.77;100.00
10806;BME280;5455;53.224;6.000;2023-06-10T01:58:43;101781.72;;;14.71;100.00
10806;BME280;5455;53.224;6.000;2023-06-10T02:01:10;101792.31;;;14.66;100.00
10806;BME280;5455;53.224;6.000;2023-06-10T02:03:38;101787.03;;;14.61;100.00
10806;BME280;5455;53.224;6.000;2023-06-10T02:06:05;101788.94;;;14.57;100.00
10806;BME280;5455;53.224;6.000;2023-06-10T02:08:32;101786.81;;;14.50;100.00
10806;BME280;5455;53.224;6.000;2023-06-10T02:10:59;101787.97;;;14.49;100.00
10806;BME280;5455;53.224;6.000;2023-06-10T02:13:29;101786.34;;;14.48;100.00
10806;BME280;5455;53.224;6.000;2023-06-10T02:15:56;101783.16;;;14.46;100.00
10806;BME280;5455;53.224;6.000;2023-06-10T02:18:28;101791.13;;;14.48;100.00
10806;BME280;5455;53.224;6.000;2023-06-10T02:20:55;101786.72;;;14.47;100.00
10806;BME280;5455;53.224;6.000;2023-06-10T02:23:22;101788.34;;;14.48;100.00
10806;BME280;5455;53.224;6.000;2023-06-10T02:25:49;101787.63;;;14.51;100.00
10806;BME280;5455;53.224;6.000;2023-06-10T02:28:17;101785.56;;;14.48;100.00
10806;BME280;5455;53.224;6.000;2023-06-10T02:30:44;101794.25;;;14.46;100.00
10806;BME280;5455;53.224;6.000;2023-06-10T02:33:14;101789.50;;;14.47;100.00
10806;BME280;5455;53.224;6.000;2023-06-10T02:35:42;101792.63;;;14.45;100.00
10806;BME280;5455;53.224;6.000;2023-06-10T02:38:09;101795.34;;;14.42;100.00
10806;BME280;5455;53.224;6.000;2023-06-10T02:40:37;101800.00;;;14.38;100.00
10806;BME280;5455;53.224;6.000;2023-06-10T02:43:04;101788.00;;;14.33;100.00
10806;BME280;5455;53.224;6.000;2023-06-10T02:45:31;101797.75;;;14.27;100.00
10806;BME280;5455;53.224;6.000;2023-06-10T02:48:00;101789.78;;;14.26;100.00
10806;BME280;5455;53.224;6.000;2023-06-10T02:50:28;101795.69;;;14.24;100.00
10806;BME280;5455;53.224;6.000;2023-06-10T02:53:02;101798.41;;;14.21;100.00
10806;BME280;5455;53.224;6.000;2023-06-10T02:55:30;101795.78;;;14.12;100.00
10806;BME280;5455;53.224;6.000;2023-06-10T02:58:01;101795.19;;;14.03;100.00
10806;BME280;5455;53.224;6.000;2023-06-10T03:00:30;101795.03;;;13.96;100.00
10806;BME280;5455;53.224;6.000;2023-06-10T03:02:57;101793.31;;;13.92;100.00
10806;BME280;5455;53.224;6.000;2023-06-10T03:05:30;101786.88;;;13.88;100.00
10806;BME280;5455;53.224;6.000;2023-06-10T03:08:00;101796.38;;;13.87;100.00
10806;BME280;5455;53.224;6.000;2023-06-10T03:10:29;101789.56;;;13.84;100.00
10806;BME280;5455;53.224;6.000;2023-06-10T03:12:56;101792.25;;;13.80;100.00
10806;BME280;5455;53.224;6.000;2023-06-10T03:15:24;101791.81;;;13.78;100.00
10806;BME280;5455;53.224;6.000;2023-06-10T03:17:52;101792.16;;;13.77;100.00
10806;BME280;5455;53.224;6.000;2023-06-10T03:20:19;101796.44;;;13.74;100.00
10806;BME280;5455;53.224;6.000;2023-06-10T03:22:46;101802.34;;;13.73;100.00
10806;BME280;5455;53.224;6.000;2023-06-10T03:25:13;101799.50;;;13.69;100.00
10806;BME280;5455;53.224;6.000;2023-06-10T03:27:45;101805.75;;;13.66;100.00
10806;BME280;5455;53.224;6.000;2023-06-10T03:30:13;101799.41;;;13.66;100.00
10806;BME280;5455;53.224;6.000;2023-06-10T03:32:42;101796.63;;;13.66;100.00
10806;BME280;5455;53.224;6.000;2023-06-10T03:35:13;101791.09;;;13.66;100.00
10806;BME280;5455;53.224;6.000;2023-06-10T03:37:40;101801.34;;;13.65;100.00
10806;BME280;5455;53.224;6.000;2023-06-10T03:40:08;101800.22;;;13.66;100.00
10806;BME280;5455;53.224;6.000;2023-06-10T03:42:37;101800.28;;;13.70;100.00
10806;BME280;5455;53.224;6.000;2023-06-10T03:45:05;101801.56;;;13.72;100.00
10806;BME280;5455;53.224;6.000;2023-06-10T03:47:35;101801.56;;;13.72;100.00
10806;BME280;5455;53.224;6.000;2023-06-10T03:50:08;101803.50;;;13.72;100.00
10806;BME280;5455;53.224;6.000;2023-06-10T03:52:38;101808.59;;;13.70;100.00
10806;BME280;5455;53.224;6.000;2023-06-10T03:55:06;101802.28;;;13.69;100.00
10806;BME280;5455;53.224;6.000;2023-06-10T03:57:34;101812.97;;;13.71;100.00
10806;BME280;5455;53.224;6.000;2023-06-10T04:00:01;101813.78;;;13.71;100.00
10806;BME280;5455;53.224;6.000;2023-06-10T04:02:40;101814.69;;;13.75;100.00
10806;BME280;5455;53.224;6.000;2023-06-10T04:05:26;101811.13;;;13.75;100.00
10806;BME280;5455;53.224;6.000;2023-06-10T04:07:53;101814.31;;;13.77;100.00
10806;BME280;5455;53.224;6.000;2023-06-10T04:10:20;101808.06;;;13.80;100.00
10806;BME280;5455;53.224;6.000;2023-06-10T04:12:47;101811.66;;;13.80;100.00
10806;BME280;5455;53.224;6.000;2023-06-10T04:15:14;101818.81;;;13.82;100.00
10806;BME280;5455;53.224;6.000;2023-06-10T04:17:42;101822.38;;;13.82;100.00
10806;BME280;5455;53.224;6.000;2023-06-10T04:20:10;101819.34;;;13.87;100.00
10806;BME280;5455;53.224;6.000;2023-06-10T04:22:41;101825.34;;;13.89;100.00
10806;BME280;5455;53.224;6.000;2023-06-10T04:25:09;101817.81;;;13.90;100.00
10806;BME280;5455;53.224;6.000;2023-06-10T04:27:38;101817.91;;;13.93;100.00
10806;BME280;5455;53.224;6.000;2023-06-10T04:30:06;101819.16;;;13.96;100.00
10806;BME280;5455;53.224;6.000;2023-06-10T04:32:35;101822.03;;;13.99;100.00
10806;BME280;5455;53.224;6.000;2023-06-10T04:35:03;101827.66;;;14.03;100.00
10806;BME280;5455;53.224;6.000;2023-06-10T04:37:30;101818.97;;;14.04;100.00
10806;BME280;5455;53.224;6.000;2023-06-10T04:39:58;101825.44;;;14.08;100.00
10806;BME280;5455;53.224;6.000;2023-06-10T04:42:26;101827.13;;;14.13;100.00
10806;BME280;5455;53.224;6.000;2023-06-10T04:44:54;101829.97;;;14.16;100.00
10806;BME280;5455;53.224;6.000;2023-06-10T04:47:21;101832.03;;;14.19;100.00
10806;BME280;5455;53.224;6.000;2023-06-10T04:49:48;101834.47;;;14.21;100.00
10806;BME280;5455;53.224;6.000;2023-06-10T04:52:15;101823.81;;;14.23;100.00
10806;BME280;5455;53.224;6.000;2023-06-10T04:54:45;101834.19;;;14.26;100.00
10806;BME280;5455;53.224;6.000;2023-06-10T04:57:12;101835.03;;;14.30;100.00
10806;BME280;5455;53.224;6.000;2023-06-10T04:59:39;101840.38;;;14.35;100.00
10806;BME280;5455;53.224;6.000;2023-06-10T05:02:06;101840.00;;;14.37;100.00
10806;BME280;5455;53.224;6.000;2023-06-10T05:04:33;101842.50;;;14.42;100.00
10806;BME280;5455;53.224;6.000;2023-06-10T05:07:00;101839.81;;;14.45;100.00
10806;BME280;5455;53.224;6.000;2023-06-10T05:09:27;101835.97;;;14.50;100.00
10806;BME280;5455;53.224;6.000;2023-06-10T05:11:54;101841.94;;;14.52;100.00
10806;BME280;5455;53.224;6.000;2023-06-10T05:14:21;101842.41;;;14.54;100.00
10806;BME280;5455;53.224;6.000;2023-06-10T05:16:48;101845.25;;;14.57;100.00
10806;BME280;5455;53.224;6.000;2023-06-10T05:19:15;101846.22;;;14.65;100.00
10806;BME280;5455;53.224;6.000;2023-06-10T05:21:46;101842.81;;;14.71;100.00
10806;BME280;5455;53.224;6.000;2023-06-10T05:24:13;101839.00;;;14.79;100.00
10806;BME280;5455;53.224;6.000;2023-06-10T05:26:40;101838.72;;;14.84;100.00
10806;BME280;5455;53.224;6.000;2023-06-10T05:29:08;101844.34;;;14.88;100.00
10806;BME280;5455;53.224;6.000;2023-06-10T05:31:36;101849.59;;;14.93;100.00
10806;BME280;5455;53.224;6.000;2023-06-10T05:34:03;101847.38;;;14.99;100.00
10806;BME280;5455;53.224;6.000;2023-06-10T05:36:30;101847.06;;;15.04;100.00
10806;BME280;5455;53.224;6.000;2023-06-10T05:38:56;101856.72;;;15.10;100.00
10806;BME280;5455;53.224;6.000;2023-06-10T05:41:23;101858.38;;;15.14;100.00
10806;BME280;5455;53.224;6.000;2023-06-10T05:43:50;101856.56;;;15.22;100.00
10806;BME280;5455;53.224;6.000;2023-06-10T05:46:17;101855.53;;;15.30;100.00
10806;BME280;5455;53.224;6.000;2023-06-10T05:48:44;101853.34;;;15.39;100.00
10806;BME280;5455;53.224;6.000;2023-06-10T05:51:11;101854.31;;;15.47;100.00
10806;BME280;5455;53.224;6.000;2023-06-10T05:53:38;101857.97;;;15.51;100.00
10806;BME280;5455;53.224;6.000;2023-06-10T05:56:06;101851.66;;;15.54;100.00
10806;BME280;5455;53.224;6.000;2023-06-10T05:58:33;101858.91;;;15.58;100.00
10806;BME280;5455;53.224;6.000;2023-06-10T06:01:00;101857.13;;;15.69;100.00
10806;BME280;5455;53.224;6.000;2023-06-10T06:03:27;101849.78;;;15.80;100.00
10806;BME280;5455;53.224;6.000;2023-06-10T06:05:55;101843.94;;;15.85;100.00
10806;BME280;5455;53.224;6.000;2023-06-10T06:08:22;101850.13;;;15.98;100.00
10806;BME280;5455;53.224;6.000;2023-06-10T06:10:50;101858.28;;;16.10;100.00
10806;BME280;5455;53.224;6.000;2023-06-10T06:13:17;101859.50;;;16.13;100.00
10806;BME280;5455;53.224;6.000;2023-06-10T06:15:44;101863.09;;;16.13;100.00
10806;BME280;5455;53.224;6.000;2023-06-10T06:18:11;101864.34;;;16.19;100.00
10806;BME280;5455;53.224;6.000;2023-06-10T06:20:38;101860.97;;;16.29;100.00
10806;BME280;5455;53.224;6.000;2023-06-10T06:23:05;101860.34;;;16.39;100.00
10806;BME280;5455;53.224;6.000;2023-06-10T06:25:33;101864.41;;;16.45;100.00
10806;BME280;5455;53.224;6.000;2023-06-10T06:28:00;101853.28;;;16.45;100.00
10806;BME280;5455;53.224;6.000;2023-06-10T06:30:27;101853.44;;;16.56;100.00
10806;BME280;5455;53.224;6.000;2023-06-10T06:32:54;101849.63;;;16.64;100.00
10806;BME280;5455;53.224;6.000;2023-06-10T06:35:22;101861.31;;;16.77;100.00
10806;BME280;5455;53.224;6.000;2023-06-10T06:37:49;101857.78;;;16.80;100.00
10806;BME280;5455;53.224;6.000;2023-06-10T06:40:21;101854.97;;;16.80;100.00
10806;BME280;5455;53.224;6.000;2023-06-10T06:42:48;101850.63;;;16.82;100.00
10806;BME280;5455;53.224;6.000;2023-06-10T06:45:34;101853.94;;;16.91;100.00
10806;BME280;5455;53.224;6.000;2023-06-10T06:48:01;101855.59;;;16.96;100.00
10806;BME280;5455;53.224;6.000;2023-06-10T06:50:29;101852.13;;;17.02;100.00
10806;BME280;5455;53.224;6.000;2023-06-10T06:52:56;101849.03;;;17.11;100.00
10806;BME280;5455;53.224;6.000;2023-06-10T06:55:23;101848.78;;;17.23;100.00
10806;BME280;5455;53.224;6.000;2023-06-10T06:57:49;101845.75;;;17.35;100.00
10806;BME280;5455;53.224;6.000;2023-06-10T07:00:17;101848.69;;;17.49;100.00
10806;BME280;5455;53.224;6.000;2023-06-10T07:02:44;101858.00;;;17.60;100.00
10806;BME280;5455;53.224;6.000;2023-06-10T07:05:11;101860.38;;;17.58;100.00
10806;BME280;5455;53.224;6.000;2023-06-10T07:07:39;101856.78;;;17.58;100.00
10806;BME280;5455;53.224;6.000;2023-06-10T07:10:06;101862.53;;;17.72;100.00
10806;BME280;5455;53.224;6.000;2023-06-10T07:12:33;101859.91;;;17.90;100.00
10806;BME280;5455;53.224;6.000;2023-06-10T07:15:00;101871.56;;;17.99;100.00
10806;BME280;5455;53.224;6.000;2023-06-10T07:17:27;101867.22;;;18.05;100.00
10806;BME280;5455;53.224;6.000;2023-06-10T07:19:54;101868.41;;;18.04;100.00
10806;BME280;5455;53.224;6.000;2023-06-10T07:22:24;101867.19;;;18.01;100.00
10806;BME280;5455;53.224;6.000;2023-06-10T07:24:51;101872.03;;;18.08;100.00
10806;BME280;5455;53.224;6.000;2023-06-10T07:27:18;101871.28;;;18.14;100.00
10806;BME280;5455;53.224;6.000;2023-06-10T07:29:45;101874.09;;;18.18;100.00
10806;BME280;5455;53.224;6.000;2023-06-10T07:32:12;101880.16;;;18.27;100.00
10806;BME280;5455;53.224;6.000;2023-06-10T07:34:39;101881.41;;;18.33;100.00
10806;BME280;5455;53.224;6.000;2023-06-10T07:37:06;101873.50;;;18.42;100.00
10806;BME280;5455;53.224;6.000;2023-06-10T07:39:33;101880.47;;;18.59;100.00
10806;BME280;5455;53.224;6.000;2023-06-10T07:42:00;101883.63;;;18.57;100.00
10806;BME280;5455;53.224;6.000;2023-06-10T07:44:28;101878.47;;;18.63;100.00
10806;BME280;5455;53.224;6.000;2023-06-10T07:46:55;101883.38;;;18.77;100.00
10806;BME280;5455;53.224;6.000;2023-06-10T07:49:24;101884.22;;;18.88;100.00
10806;BME280;5455;53.224;6.000;2023-06-10T07:51:54;101885.50;;;19.01;100.00
10806;BME280;5455;53.224;6.000;2023-06-10T07:54:21;101883.13;;;19.06;100.00
10806;BME280;5455;53.224;6.000;2023-06-10T07:56:48;101894.81;;;19.22;100.00
10806;BME280;5455;53.224;6.000;2023-06-10T07:59:15;101889.59;;;19.21;100.00
10806;BME280;5455;53.224;6.000;2023-06-10T08:01:42;101895.66;;;19.34;100.00
10806;BME280;5455;53.224;6.000;2023-06-10T08:04:11;101897.69;;;19.40;100.00
10806;BME280;5455;53.224;6.000;2023-06-10T08:06:38;101903.34;;;19.58;100.00
10806;BME280;5455;53.224;6.000;2023-06-10T08:09:05;101899.34;;;19.62;100.00
10806;BME280;5455;53.224;6.000;2023-06-10T08:11:32;101894.63;;;19.73;100.00
10806;BME280;5455;53.224;6.000;2023-06-10T08:13:59;101903.03;;;19.98;100.00
10806;BME280;5455;53.224;6.000;2023-06-10T08:16:26;101899.88;;;20.17;100.00
10806;BME280;5455;53.224;6.000;2023-06-10T08:18:53;101895.91;;;20.32;100.00
10806;BME280;5455;53.224;6.000;2023-06-10T08:21:21;101901.09;;;20.48;100.00
10806;BME280;5455;53.224;6.000;2023-06-10T08:23:52;101909.09;;;20.53;100.00
10806;BME280;5455;53.224;6.000;2023-06-10T08:26:19;101898.69;;;20.57;97.35
10806;BME280;5455;53.224;6.000;2023-06-10T08:28:46;101901.50;;;20.57;95.04
10806;BME280;5455;53.224;6.000;2023-06-10T08:31:14;101898.69;;;20.61;97.01
10806;BME280;5455;53.224;6.000;2023-06-10T08:33:42;101899.44;;;20.79;98.74
10806;BME280;5455;53.224;6.000;2023-06-10T08:36:09;101904.63;;;20.95;95.67
10806;BME280;5455;53.224;6.000;2023-06-10T08:38:36;101910.66;;;20.97;94.20
10806;BME280;5455;53.224;6.000;2023-06-10T08:41:05;101901.00;;;20.98;91.34
10806;BME280;5455;53.224;6.000;2023-06-10T08:43:36;101904.59;;;21.12;93.33
10806;BME280;5455;53.224;6.000;2023-06-10T08:46:04;101904.94;;;21.32;88.20
10806;BME280;5455;53.224;6.000;2023-06-10T08:48:34;101907.38;;;21.30;88.35
10806;BME280;5455;53.224;6.000;2023-06-10T08:51:04;101903.31;;;21.38;88.63
10806;BME280;5455;53.224;6.000;2023-06-10T08:53:33;101903.59;;;21.61;87.77
10806;BME280;5455;53.224;6.000;2023-06-10T08:56:03;101907.13;;;21.76;85.09
10806;BME280;5455;53.224;6.000;2023-06-10T08:58:32;101903.88;;;21.88;84.14
10806;BME280;5455;53.224;6.000;2023-06-10T09:01:02;101916.69;;;21.92;80.77
10806;BME280;5455;53.224;6.000;2023-06-10T09:03:29;101907.06;;;21.86;82.55
10806;BME280;5455;53.224;6.000;2023-06-10T09:05:57;101912.66;;;21.97;82.72
10806;BME280;5455;53.224;6.000;2023-06-10T09:08:24;101901.00;;;21.99;82.14
10806;BME280;5455;53.224;6.000;2023-06-10T09:10:51;101905.72;;;22.12;77.80
10806;BME280;5455;53.224;6.000;2023-06-10T09:13:18;101906.88;;;22.18;76.93
10806;BME280;5455;53.224;6.000;2023-06-10T09:15:45;101904.81;;;22.26;76.87
10806;BME280;5455;53.224;6.000;2023-06-10T09:18:13;101905.97;;;22.32;78.98
10806;BME280;5455;53.224;6.000;2023-06-10T09:20:42;101897.13;;;22.33;77.40
10806;BME280;5455;53.224;6.000;2023-06-10T09:23:09;101898.59;;;22.48;77.23
10806;BME280;5455;53.224;6.000;2023-06-10T09:25:38;101897.66;;;22.66;76.85
10806;BME280;5455;53.224;6.000;2023-06-10T09:28:13;101899.56;;;22.76;75.00
10806;BME280;5455;53.224;6.000;2023-06-10T09:30:41;101896.81;;;22.69;71.97
10806;BME280;5455;53.224;6.000;2023-06-10T09:33:13;101895.09;;;22.82;74.73
10806;BME280;5455;53.224;6.000;2023-06-10T09:35:48;101889.03;;;22.83;74.53
10806;BME280;5455;53.224;6.000;2023-06-10T09:38:20;101895.31;;;22.98;74.66
10806;BME280;5455;53.224;6.000;2023-06-10T09:40:52;101897.13;;;23.15;73.63
10806;BME280;5455;53.224;6.000;2023-06-10T09:43:20;101901.13;;;23.18;67.38
10806;BME280;5455;53.224;6.000;2023-06-10T09:45:49;101892.69;;;23.18;69.58
10806;BME280;5455;53.224;6.000;2023-06-10T09:48:16;101894.50;;;23.31;70.92
10806;BME280;5455;53.224;6.000;2023-06-10T09:50:44;101902.34;;;23.50;68.38
10806;BME280;5455;53.224;6.000;2023-06-10T09:53:12;101905.91;;;23.54;66.48
10806;BME280;5455;53.224;6.000;2023-06-10T09:55:40;101910.38;;;23.52;65.26
10806;BME280;5455;53.224;6.000;2023-06-10T09:58:07;101910.59;;;23.65;64.78
10806;BME280;5455;53.224;6.000;2023-06-10T10:00:34;101901.63;;;23.73;63.98
10806;BME280;5455;53.224;6.000;2023-06-10T10:03:01;101909.03;;;23.90;64.20
10806;BME280;5455;53.224;6.000;2023-06-10T10:05:29;101907.16;;;23.80;63.36
10806;BME280;5455;53.224;6.000;2023-06-10T10:07:56;101903.66;;;23.73;64.64
10806;BME280;5455;53.224;6.000;2023-06-10T10:10:23;101916.19;;;23.68;63.25
10806;BME280;5455;53.224;6.000;2023-06-10T10:12:54;101898.59;;;23.61;60.79
10806;BME280;5455;53.224;6.000;2023-06-10T10:15:25;101904.47;;;23.73;60.90
10806;BME280;5455;53.224;6.000;2023-06-10T10:20:31;101900.00;;;24.29;58.14
10806;BME280;5455;53.224;6.000;2023-06-10T10:23:02;101893.66;;;24.22;58.48
10806;BME280;5455;53.224;6.000;2023-06-10T10:25:33;101894.41;;;24.26;59.76
10806;BME280;5455;53.224;6.000;2023-06-10T10:28:11;101899.88;;;24.36;56.93
10806;BME280;5455;53.224;6.000;2023-06-10T10:30:45;101898.94;;;24.43;57.98
10806;BME280;5455;53.224;6.000;2023-06-10T10:33:20;101897.22;;;24.49;60.02
10806;BME280;5455;53.224;6.000;2023-06-10T10:35:50;101900.13;;;24.45;60.22
10806;BME280;5455;53.224;6.000;2023-06-10T10:38:18;101894.03;;;24.47;60.08
10806;BME280;5455;53.224;6.000;2023-06-10T10:40:46;101899.53;;;24.77;61.43
10806;BME280;5455;53.224;6.000;2023-06-10T10:43:14;101897.66;;;24.71;59.02
10806;BME280;5455;53.224;6.000;2023-06-10T10:45:45;101893.78;;;24.61;59.04
10806;BME280;5455;53.224;6.000;2023-06-10T10:48:14;101892.31;;;24.76;61.30
10806;BME280;5455;53.224;6.000;2023-06-10T10:50:41;101889.50;;;24.99;58.43
10806;BME280;5455;53.224;6.000;2023-06-10T10:53:08;101900.53;;;24.90;56.10
10806;BME280;5455;53.224;6.000;2023-06-10T10:55:35;101889.25;;;25.10;56.75
10806;BME280;5455;53.224;6.000;2023-06-10T10:58:04;101883.31;;;25.04;51.78
10806;BME280;5455;53.224;6.000;2023-06-10T11:00:36;101876.94;;;25.00;51.38
10806;BME280;5455;53.224;6.000;2023-06-10T11:03:08;101877.69;;;25.04;50.06
10806;BME280;5455;53.224;6.000;2023-06-10T11:05:44;101869.84;;;24.92;51.54
10806;BME280;5455;53.224;6.000;2023-06-10T11:11:00;101868.56;;;25.16;53.52
10806;BME280;5455;53.224;6.000;2023-06-10T11:13:27;101869.84;;;25.12;52.92
10806;BME280;5455;53.224;6.000;2023-06-10T11:15:57;101867.13;;;25.08;51.55
10806;BME280;5455;53.224;6.000;2023-06-10T11:18:28;101864.78;;;25.03;52.88
10806;BME280;5455;53.224;6.000;2023-06-10T11:21:01;101850.09;;;25.12;52.37
10806;BME280;5455;53.224;6.000;2023-06-10T11:31:30;101853.06;;;25.05;52.23
10806;BME280;5455;53.224;6.000;2023-06-10T11:34:02;101852.13;;;25.31;52.22
10806;BME280;5455;53.224;6.000;2023-06-10T11:36:31;101851.94;;;25.58;49.94
10806;BME280;5455;53.224;6.000;2023-06-10T11:39:01;101848.00;;;25.71;49.87
10806;BME280;5455;53.224;6.000;2023-06-10T11:41:29;101859.22;;;25.75;50.11
10806;BME280;5455;53.224;6.000;2023-06-10T11:44:07;101860.28;;;25.81;47.57
10806;BME280;5455;53.224;6.000;2023-06-10T11:46:35;101856.84;;;26.06;47.42
10806;BME280;5455;53.224;6.000;2023-06-10T11:49:04;101858.78;;;25.93;48.88
10806;BME280;5455;53.224;6.000;2023-06-10T11:51:39;101853.59;;;26.07;48.86
10806;BME280;5455;53.224;6.000;2023-06-10T11:54:10;101856.59;;;26.00;47.07
10806;BME280;5455;53.224;6.000;2023-06-10T11:56:37;101861.09;;;25.98;47.57
10806;BME280;5455;53.224;6.000;2023-06-10T11:59:06;101847.59;;;25.89;57.79
10806;BME280;5455;53.224;6.000;2023-06-10T12:01:38;101851.91;;;25.78;65.92
10806;BME280;5455;53.224;6.000;2023-06-10T12:04:12;101839.91;;;25.54;69.41
10806;BME280;5455;53.224;6.000;2023-06-10T12:11:58;101833.28;;;25.25;85.19
10806;BME280;5455;53.224;6.000;2023-06-10T12:14:58;101835.75;;;25.23;85.05
10806;BME280;5455;53.224;6.000;2023-06-10T12:20:47;101827.31;;;25.39;82.90
10806;BME280;5455;53.224;6.000;2023-06-10T12:22:49;101827.81;;;24.98;83.22
10806;BME280;5455;53.224;6.000;2023-06-10T12:25:16;101819.78;;;24.96;87.17
10806;BME280;5455;53.224;6.000;2023-06-10T12:27:53;101836.31;;;25.34;87.27
10806;BME280;5455;53.224;6.000;2023-06-10T12:30:21;101823.88;;;25.31;88.48
10806;BME280;5455;53.224;6.000;2023-06-10T12:32:49;101826.63;;;25.15;87.72
10806;BME280;5455;53.224;6.000;2023-06-10T12:35:18;101826.25;;;25.33;88.47
10806;BME280;5455;53.224;6.000;2023-06-10T12:38:03;101820.97;;;25.35;84.48
10806;BME280;5455;53.224;6.000;2023-06-10T12:40:36;101814.47;;;25.18;90.63
10806;BME280;5455;53.224;6.000;2023-06-10T12:43:04;101820.03;;;25.21;89.21
10806;BME280;5455;53.224;6.000;2023-06-10T12:45:38;101817.88;;;25.09;87.20
10806;BME280;5455;53.224;6.000;2023-06-10T12:48:12;101827.28;;;25.23;85.86
10806;BME280;5455;53.224;6.000;2023-06-10T12:50:40;101820.44;;;24.84;88.38
10806;BME280;5455;53.224;6.000;2023-06-10T12:53:10;101827.00;;;24.78;87.46
10806;BME280;5455;53.224;6.000;2023-06-10T12:55:38;101812.78;;;24.61;90.88
10806;BME280;5455;53.224;6.000;2023-06-10T12:58:05;101823.25;;;24.61;89.71
10806;BME280;5455;53.224;6.000;2023-06-10T13:00:32;101827.31;;;24.83;89.77
10806;BME280;5455;53.224;6.000;2023-06-10T13:03:02;101825.84;;;24.95;88.90
10806;BME280;5455;53.224;6.000;2023-06-10T13:05:29;101820.59;;;24.74;89.34
10806;BME280;5455;53.224;6.000;2023-06-10T13:07:57;101829.78;;;24.81;93.41
10806;BME280;5455;53.224;6.000;2023-06-10T13:10:24;101826.19;;;24.77;88.47
10806;BME280;5455;53.224;6.000;2023-06-10T13:12:52;101816.13;;;24.76;89.67
10806;BME280;5455;53.224;6.000;2023-06-10T13:15:21;101818.31;;;24.88;88.32
10806;BME280;5455;53.224;6.000;2023-06-10T13:17:48;101815.03;;;24.93;88.31
10806;BME280;5455;53.224;6.000;2023-06-10T13:20:18;101821.84;;;25.12;89.20
10806;BME280;5455;53.224;6.000;2023-06-10T13:22:46;101813.84;;;25.10;85.49
10806;BME280;5455;53.224;6.000;2023-06-10T13:25:14;101816.06;;;24.80;87.27